Time;durP1;ratioP1;P1;durP2;ratioP2;P2;SDS_P1;SDS_P2;PMS_P1;PMS_P2;Temp;Humidity;BMP_temperature;BMP_pressure;BME280_temperature;BME280_humidity;BME280_pressure;Samples;Min_cycle;Max_cycle;Signal;HPM_P1;HPM_P2
2022/02/08 00:02:25;;;;;;;;;;;;;;;9.05;24.58;101760.56;4960001;28;19918;-82
2022/02/08 00:05:13;;;;;;;;;;;;;;;8.82;24.83;101759.34;4959404;29;20372;-82
2022/02/08 00:07:57;;;;;;;;;;;;;;;9.12;27.33;101755.66;4961505;28;19915;-82
2022/02/08 00:10:42;;;;;;;;;;;;;;;8.94;24.60;101751.66;4959102;28;19914;-82
2022/02/08 00:13:26;;;;;;;;;;;;;;;9.04;24.41;101750.03;4961952;28;19918;-82
2022/02/08 00:16:11;;;;;;;;;;;;;;;8.97;24.00;101753.03;4959163;29;19918;-84
2022/02/08 00:18:55;;;;;;;;;;;;;;;8.82;24.86;101755.81;4959077;28;19922;-83
2022/02/08 00:21:40;;;;;;;;;;;;;;;8.78;24.84;101754.75;4958595;28;19914;-82
2022/02/08 00:24:24;;;;;;;;;;;;;;;8.73;24.76;101761.00;4958698;28;20307;-83
2022/02/08 00:27:08;;;;;;;;;;;;;;;8.76;25.83;101770.47;4958564;28;19914;-83
2022/02/08 00:29:52;;;;;;;;;;;;;;;8.73;25.79;101765.63;4959307;28;20291;-83
2022/02/08 00:32:37;;;;;;;;;;;;;;;8.85;26.05;101763.38;4963235;28;19914;-83
2022/02/08 00:35:22;;;;;;;;;;;;;;;8.87;24.83;101763.94;4959239;29;20392;-83
2022/02/08 00:38:06;;;;;;;;;;;;;;;8.74;24.59;101759.91;4960128;29;19914;-83
2022/02/08 00:40:56;;;;;;;;;;;;;;;8.99;24.16;101761.69;4962795;28;19918;-83
2022/02/08 00:43:53;;;;;;;;;;;;;;;8.90;24.70;101757.94;4960340;28;19914;-84
2022/02/08 00:47:01;;;;;;;;;;;;;;;8.90;24.08;101769.59;4959581;28;19914;-84
2022/02/08 00:49:46;;;;;;;;;;;;;;;8.91;24.97;101764.97;4959157;28;19914;-83
2022/02/08 00:52:37;;;;;;;;;;;;;;;8.82;24.86;101761.22;4959530;28;19914;-83
2022/02/08 00:55:22;;;;;;;;;;;;;;;8.63;25.56;101766.47;4961056;28;19914;-83
2022/02/08 00:58:06;;;;;;;;;;;;;;;8.72;25.22;101761.28;4959274;28;19914;-84
2022/02/08 01:00:51;;;;;;;;;;;;;;;8.76;27.10;101776.72;4959798;28;19918;-83
2022/02/08 01:03:36;;;;;;;;;;;;;;;8.74;26.00;101778.06;4959633;28;20379;-84
2022/02/08 01:06:21;;;;;;;;;;;;;;;8.75;25.01;101771.56;4958647;28;19914;-83
2022/02/08 01:09:16;;;;;;;;;;;;;;;8.76;24.93;101775.91;4959226;28;19914;-82
2022/02/08 01:12:02;;;;;;;;;;;;;;;8.65;25.10;101763.44;4959041;28;19914;-83
2022/02/08 01:14:49;;;;;;;;;;;;;;;8.74;24.88;101768.03;4958981;28;19914;-83
2022/02/08 01:17:35;;;;;;;;;;;;;;;8.51;25.68;101772.19;4958981;28;19914;-83
2022/02/08 01:20:29;;;;;;;;;;;;;;;8.07;25.62;101773.88;4958848;28;19918;-84
2022/02/08 01:23:13;;;;;;;;;;;;;;;8.37;26.42;101784.69;4959013;29;20303;-82
2022/02/08 01:26:03;;;;;;;;;;;;;;;8.00;27.09;101776.03;4957742;29;19918;-81
2022/02/08 01:28:56;;;;;;;;;;;;;;;7.73;27.52;101763.56;4958776;29;19915;-82
2022/02/08 01:31:40;;;;;;;;;;;;;;;7.95;28.35;101776.03;4960015;28;19915;-82
2022/02/08 01:34:43;;;;;;;;;;;;;;;7.91;28.11;101769.53;4958077;28;19918;-82
2022/02/08 01:41:06;;;;;;;;;;;;;;;8.25;28.53;101772.47;4958596;28;19919;-82
2022/02/08 01:44:16;;;;;;;;;;;;;;;8.21;26.73;101783.06;4958675;28;19914;-82
2022/02/08 01:47:15;;;;;;;;;;;;;;;8.05;26.92;101784.16;4956976;28;20618;-82
2022/02/08 01:50:11;;;;;;;;;;;;;;;7.83;27.64;101789.81;4959144;29;19914;-83
2022/02/08 01:52:56;;;;;;;;;;;;;;;8.01;27.33;101780.38;4959703;28;19914;-83
2022/02/08 01:55:46;;;;;;;;;;;;;;;7.90;30.76;101781.44;4959200;28;19915;-83
2022/02/08 01:58:31;;;;;;;;;;;;;;;7.44;30.46;101788.72;4940136;29;19914;-83
2022/02/08 02:01:25;;;;;;;;;;;;;;;7.22;30.94;101780.81;4939997;29;19922;-82
2022/02/08 02:04:09;;;;;;;;;;;;;;;7.09;31.25;101787.53;4943176;29;20384;-83
2022/02/08 02:06:56;;;;;;;;;;;;;;;6.90;31.76;101791.78;4946618;29;19922;-83
2022/02/08 02:09:46;;;;;;;;;;;;;;;6.82;32.33;101795.81;4958130;28;19918;-83
2022/02/08 02:12:36;;;;;;;;;;;;;;;6.77;33.38;101792.25;4958862;28;19918;-83
2022/02/08 02:15:22;;;;;;;;;;;;;;;6.66;33.54;101796.00;4958126;29;19915;-82
2022/02/08 02:18:06;;;;;;;;;;;;;;;6.72;33.14;101795.75;4956092;28;20554;-83
2022/02/08 02:20:51;;;;;;;;;;;;;;;6.88;33.59;101799.34;4962388;28;20383;-84
2022/02/08 02:23:37;;;;;;;;;;;;;;;6.95;32.84;101799.13;4959724;28;19914;-83
2022/02/08 02:26:22;;;;;;;;;;;;;;;6.93;32.73;101793.16;4958176;29;19914;-83
2022/02/08 02:29:06;;;;;;;;;;;;;;;6.87;32.43;101793.13;4958224;28;19915;-83
2022/02/08 02:31:53;;;;;;;;;;;;;;;6.81;33.11;101790.66;4958088;29;19915;-84
2022/02/08 02:34:44;;;;;;;;;;;;;;;6.75;32.93;101784.44;4958145;28;19914;-82
2022/02/08 02:37:29;;;;;;;;;;;;;;;6.78;32.62;101783.09;4958025;28;19914;-82
2022/02/08 02:40:14;;;;;;;;;;;;;;;6.74;32.68;101777.41;4957981;29;19918;-82
2022/02/08 02:43:00;;;;;;;;;;;;;;;6.80;32.44;101784.47;4958286;28;19914;-82
2022/02/08 02:45:45;;;;;;;;;;;;;;;6.78;31.49;101783.09;4960689;28;19918;-83
2022/02/08 02:48:30;;;;;;;;;;;;;;;6.79;32.75;101787.41;4957840;29;19914;-83
2022/02/08 02:51:17;;;;;;;;;;;;;;;6.86;31.99;101794.19;4957718;29;19914;-83
2022/02/08 02:54:13;;;;;;;;;;;;;;;6.95;33.23;101793.72;4957536;28;19914;-83
2022/02/08 02:57:01;;;;;;;;;;;;;;;6.92;31.75;101800.44;4956977;28;19918;-83
2022/02/08 02:59:49;;;;;;;;;;;;;;;6.93;32.54;101793.16;4957544;28;19918;-83
2022/02/08 03:20:16;;;;;;;;;;;;;;;7.19;30.81;101792.16;4957328;28;19918;-81
2022/02/08 03:23:02;;;;;;;;;;;;;;;7.25;29.92;101796.50;4959527;28;19915;-81
2022/02/08 03:25:47;;;;;;;;;;;;;;;7.34;33.13;101792.22;4957171;28;19919;-81
2022/02/08 03:28:38;;;;;;;;;;;;;;;6.63;28.86;101802.75;4960205;29;19923;-81
2022/02/08 03:31:26;;;;;;;;;;;;;;;6.87;30.46;101812.06;4966017;28;19914;-83
2022/02/08 03:34:11;;;;;;;;;;;;;;;7.21;29.98;101814.38;4965661;28;19914;-83
2022/02/08 03:37:00;;;;;;;;;;;;;;;7.10;29.30;101823.50;4961641;29;19915;-82
2022/02/08 03:39:54;;;;;;;;;;;;;;;6.94;30.14;101824.53;4961234;28;19923;-83
2022/02/08 03:42:57;;;;;;;;;;;;;;;6.75;29.95;101814.16;4963276;28;19914;-82
2022/02/08 03:45:44;;;;;;;;;;;;;;;7.03;29.60;101834.56;4963598;28;19918;-82
2022/02/08 03:48:32;;;;;;;;;;;;;;;7.07;29.62;101841.06;4961143;29;19914;-83
2022/02/08 03:51:23;;;;;;;;;;;;;;;7.12;29.57;101853.78;4962022;28;20327;-83
2022/02/08 03:54:16;;;;;;;;;;;;;;;7.12;29.42;101856.50;4964486;28;19918;-84
2022/02/08 03:57:02;;;;;;;;;;;;;;;6.97;36.35;101848.31;4960614;28;19914;-84
2022/02/08 03:59:47;;;;;;;;;;;;;;;6.94;36.16;101854.25;4961296;29;19918;-84
2022/02/08 04:02:42;;;;;;;;;;;;;;;7.05;38.31;101853.25;4964704;28;20379;-83
2022/02/08 04:05:32;;;;;;;;;;;;;;;7.06;33.45;101852.16;4961329;28;20307;-84
2022/02/08 04:08:18;;;;;;;;;;;;;;;6.74;34.37;101853.09;4960932;28;19915;-84
2022/02/08 04:11:02;;;;;;;;;;;;;;;6.81;34.11;101856.34;4962948;29;19914;-84
2022/02/08 04:13:56;;;;;;;;;;;;;;;6.80;32.24;101849.34;4960657;29;19914;-82
2022/02/08 04:16:41;;;;;;;;;;;;;;;7.01;31.09;101857.56;4960606;28;19914;-82
2022/02/08 04:19:35;;;;;;;;;;;;;;;6.93;33.81;101855.34;4960369;28;20315;-82
2022/02/08 04:34:51;;;;;;;;;;;;;;;5.50;36.23;101863.31;4960386;29;19914;-83
2022/02/08 04:37:56;;;;;;;;;;;;;;;5.44;36.25;101865.16;4961073;28;19926;-83
2022/02/08 04:44:00;;;;;;;;;;;;;;;5.55;36.95;101861.50;4961901;29;20342;-83
2022/02/08 04:46:51;;;;;;;;;;;;;;;5.74;35.69;101861.94;4962126;28;19914;-82
2022/02/08 04:49:36;;;;;;;;;;;;;;;5.77;34.75;101864.16;4962298;28;19914;-83
2022/02/08 04:52:22;;;;;;;;;;;;;;;5.87;34.33;101861.59;4963442;28;20323;-83
2022/02/08 05:01:17;;;;;;;;;;;;;;;6.42;33.58;101865.81;4968803;28;20371;-83
2022/02/08 05:44:05;;;;;;;;;;;;;;;6.82;31.13;101940.97;4942868;28;19914;-82
2022/02/08 05:46:50;;;;;;;;;;;;;;;6.68;30.61;101939.78;4953145;29;20291;-82
2022/02/08 05:49:45;;;;;;;;;;;;;;;6.82;30.73;101941.78;4959697;28;19914;-81
2022/02/08 05:55:17;;;;;;;;;;;;;;;6.32;33.83;101963.81;4957473;28;19914;-81
2022/02/08 05:58:03;;;;;;;;;;;;;;;6.16;34.16;101963.91;4950862;28;19914;-82
2022/02/08 06:00:47;;;;;;;;;;;;;;;6.23;32.64;101961.84;4951663;29;19918;-81
2022/02/08 06:03:48;;;;;;;;;;;;;;;6.25;34.69;101957.78;4940039;29;19918;-82
2022/02/08 06:06:33;;;;;;;;;;;;;;;6.29;33.12;101955.41;4957691;28;19914;-81
2022/02/08 06:09:18;;;;;;;;;;;;;;;6.07;33.90;101968.16;4958324;28;19914;-81
2022/02/08 06:12:03;;;;;;;;;;;;;;;5.97;33.94;101974.25;4962306;28;19923;-82
2022/02/08 06:14:56;;;;;;;;;;;;;;;5.65;35.11;101981.38;4958096;28;19914;-83
2022/02/08 06:17:45;;;;;;;;;;;;;;;5.68;36.68;101973.63;4958156;28;19918;-80
2022/02/08 06:20:29;;;;;;;;;;;;;;;5.63;37.60;101981.66;4958832;28;19918;-82
2022/02/08 06:23:13;;;;;;;;;;;;;;;5.60;35.88;101987.53;4957882;29;19914;-82
2022/02/08 06:25:58;;;;;;;;;;;;;;;5.42;37.73;101996.78;4958092;29;19944;-81
2022/02/08 06:28:44;;;;;;;;;;;;;;;5.77;35.24;102004.50;4957441;28;19914;-80
2022/02/08 06:31:28;;;;;;;;;;;;;;;5.88;35.82;102018.97;4959467;28;19915;-81
2022/02/08 06:34:17;;;;;;;;;;;;;;;5.74;35.34;102018.47;4957598;29;19915;-81
2022/02/08 06:37:08;;;;;;;;;;;;;;;5.73;34.29;102024.97;4956336;28;20291;-79
2022/02/08 06:39:53;;;;;;;;;;;;;;;5.59;35.92;102029.06;4951448;28;20396;-80
2022/02/08 06:42:40;;;;;;;;;;;;;;;5.49;37.41;102031.63;4957381;29;19914;-81
2022/02/08 06:45:25;;;;;;;;;;;;;;;5.22;36.60;102028.84;4957088;28;19918;-78
2022/02/08 06:48:10;;;;;;;;;;;;;;;5.29;36.38;102034.88;4959932;28;20327;-82
2022/02/08 06:50:55;;;;;;;;;;;;;;;5.37;36.39;102047.13;4955116;28;19915;-82
2022/02/08 06:53:41;;;;;;;;;;;;;;;5.42;36.12;102055.28;4946074;29;20389;-82
2022/02/08 06:56:25;;;;;;;;;;;;;;;5.54;37.99;102064.06;4945500;29;19915;-82
2022/02/08 06:59:11;;;;;;;;;;;;;;;5.39;36.86;102061.97;4947216;29;19915;-82
2022/02/08 07:01:56;;;;;;;;;;;;;;;5.02;37.76;102067.09;4947774;29;20304;-83
2022/02/08 07:04:41;;;;;;;;;;;;;;;5.00;37.46;102065.69;4949017;29;20311;-82
2022/02/08 07:07:25;;;;;;;;;;;;;;;5.18;37.28;102070.03;4960355;28;19915;-81
2022/02/08 07:10:10;;;;;;;;;;;;;;;5.22;37.20;102079.25;4948119;29;19914;-81
2022/02/08 07:12:55;;;;;;;;;;;;;;;5.30;37.75;102087.75;4947895;29;19915;-82
2022/02/08 07:15:39;;;;;;;;;;;;;;;5.36;37.66;102083.25;4949028;29;19915;-82
2022/02/08 07:18:24;;;;;;;;;;;;;;;5.43;38.20;102095.50;4962190;28;19915;-81
2022/02/08 07:21:11;;;;;;;;;;;;;;;5.56;38.27;102097.03;4959957;28;19988;-81
2022/02/08 07:23:56;;;;;;;;;;;;;;;5.64;36.89;102102.00;4947932;29;19919;-82
2022/02/08 07:26:40;;;;;;;;;;;;;;;5.70;36.67;102106.41;4949226;29;19918;-81
2022/02/08 07:29:27;;;;;;;;;;;;;;;5.41;36.97;102113.00;4951860;29;20291;-81
2022/02/08 07:32:12;;;;;;;;;;;;;;;5.66;37.50;102104.47;4950260;29;19915;-82
2022/02/08 07:35:15;;;;;;;;;;;;;;;5.69;37.14;102112.88;4948830;29;19915;-81
2022/02/08 07:38:21;;;;;;;;;;;;;;;5.94;37.40;102128.66;4941974;29;19914;-81
2022/02/08 07:43:51;;;;;;;;;;;;;;;5.70;37.48;102119.91;4941550;29;19919;-82
2022/02/08 07:46:55;;;;;;;;;;;;;;;6.08;36.50;102126.41;4941637;29;19914;-81
2022/02/08 07:49:40;;;;;;;;;;;;;;;6.13;37.13;102126.47;4941742;29;19915;-81
2022/02/08 07:52:25;;;;;;;;;;;;;;;6.25;37.77;102121.72;4955847;29;19914;-81
2022/02/08 07:55:09;;;;;;;;;;;;;;;6.01;37.58;102127.38;4959552;28;20379;-82
2022/02/08 07:57:54;;;;;;;;;;;;;;;6.16;37.26;102136.75;4960723;28;19918;-81
2022/02/08 08:00:40;;;;;;;;;;;;;;;6.16;36.97;102142.16;4951414;28;19918;-77
2022/02/08 08:03:25;;;;;;;;;;;;;;;5.79;38.56;102137.28;4959681;29;19918;-78
2022/02/08 08:06:10;;;;;;;;;;;;;;;4.72;43.27;102147.41;4959129;29;19915;-78
2022/02/08 08:08:56;;;;;;;;;;;;;;;4.34;43.99;102148.00;4958712;28;19914;-78
2022/02/08 08:11:43;;;;;;;;;;;;;;;4.67;42.87;102160.78;4959099;28;19914;-79
2022/02/08 08:14:28;;;;;;;;;;;;;;;4.15;44.44;102158.13;4953756;28;19914;-79
2022/02/08 08:20:12;;;;;;;;;;;;;;;3.97;45.65;102166.31;4951534;29;19918;-79
2022/02/08 08:22:57;;;;;;;;;;;;;;;4.13;45.43;102179.06;4962778;28;19915;-79
2022/02/08 08:25:41;;;;;;;;;;;;;;;3.97;46.17;102171.69;4958343;28;19915;-80
2022/02/08 08:28:26;;;;;;;;;;;;;;;4.24;46.61;102172.84;4958844;28;19918;-78
2022/02/08 08:31:10;;;;;;;;;;;;;;;4.37;45.01;102166.34;4958428;28;19918;-80
2022/02/08 08:33:54;;;;;;;;;;;;;;;4.02;46.56;102168.28;4958410;29;20383;-79
2022/02/08 08:36:39;;;;;;;;;;;;;;;4.10;45.54;102176.03;4958992;28;19914;-79
2022/02/08 08:39:28;;;;;;;;;;;;;;;4.32;44.30;102184.31;4958294;28;20099;-79
2022/02/08 08:42:42;;;;;;;;;;;;;;;4.12;44.29;102177.41;4958670;29;19919;-79
2022/02/08 08:48:45;;;;;;;;;;;;;;;4.41;44.79;102172.94;4957418;28;19918;-80
2022/02/08 08:51:38;;;;;;;;;;;;;;;4.77;43.54;102174.44;4958708;28;19914;-80
2022/02/08 08:54:23;;;;;;;;;;;;;;;5.12;42.96;102183.19;4951837;28;19918;-80
2022/02/08 08:57:08;;;;;;;;;;;;;;;5.35;42.89;102179.53;4957140;28;19915;-79
2022/02/08 08:59:52;;;;;;;;;;;;;;;5.43;43.81;102187.22;4956287;28;19915;-80
2022/02/08 09:02:37;;;;;;;;;;;;;;;5.44;42.83;102188.84;4957971;28;20330;-81
2022/02/08 09:05:23;;;;;;;;;;;;;;;5.55;43.51;102179.03;4959233;28;20294;-80
2022/02/08 09:08:08;;;;;;;;;;;;;;;5.64;43.02;102184.84;4943115;29;19914;-80
2022/02/08 09:11:00;;;;;;;;;;;;;;;5.84;42.47;102185.94;4958108;28;19915;-80
2022/02/08 09:13:53;;;;;;;;;;;;;;;6.01;41.69;102170.59;4952354;28;19915;-81
2022/02/08 09:31:18;;;;;;;;;;;;;;;6.95;40.41;102192.00;4965772;28;20399;-80
2022/02/08 09:34:04;;;;;;;;;;;;;;;6.78;39.75;102189.38;4944365;29;19914;-81
2022/02/08 09:36:48;;;;;;;;;;;;;;;6.93;39.79;102183.31;4953174;28;19915;-80
2022/02/08 09:39:33;;;;;;;;;;;;;;;6.92;40.11;102178.97;4957235;28;19914;-81
2022/02/08 09:42:18;;;;;;;;;;;;;;;7.01;39.25;102182.06;4960657;28;19918;-81
2022/02/08 09:45:02;;;;;;;;;;;;;;;7.23;38.07;102186.31;4953194;29;19914;-81
2022/02/08 09:47:54;;;;;;;;;;;;;;;7.47;38.60;102191.38;4952178;28;19918;-79
2022/02/08 09:50:40;;;;;;;;;;;;;;;8.18;39.75;102194.63;4957765;28;19922;-82
2022/02/08 09:53:33;;;;;;;;;;;;;;;9.54;36.89;102200.44;4950599;28;20371;-75
2022/02/08 09:56:18;;;;;;;;;;;;;;;8.70;34.86;102191.88;4948966;28;20284;-74
2022/02/08 09:59:04;;;;;;;;;;;;;;;8.44;33.99;102191.78;4956583;28;19914;-80
2022/02/08 10:01:52;;;;;;;;;;;;;;;8.23;34.64;102191.94;4953235;28;19918;-78
2022/02/08 10:04:37;;;;;;;;;;;;;;;8.09;34.25;102199.69;4950838;28;19914;-79
2022/02/08 10:07:22;;;;;;;;;;;;;;;8.03;35.04;102192.59;4953048;29;19914;-82
2022/02/08 10:10:09;;;;;;;;;;;;;;;8.05;34.72;102188.56;4949139;28;19914;-79
2022/02/08 10:21:48;;;;;;;;;;;;;;;8.30;34.19;102184.41;4955134;28;19922;-79
2022/02/08 10:24:36;;;;;;;;;;;;;;;8.31;34.63;102177.91;4954830;29;20327;-79
2022/02/08 10:27:31;;;;;;;;;;;;;;;8.41;34.10;102186.91;4956064;29;19914;-80
2022/02/08 10:39:34;;;;;;;;;;;;;;;8.95;35.56;102181.91;4954002;28;19914;-80
2022/02/08 10:42:18;;;;;;;;;;;;;;;8.97;34.79;102181.66;4955584;29;19919;-80
2022/02/08 10:45:04;;;;;;;;;;;;;;;9.00;34.14;102170.25;4947615;28;19914;-79
2022/02/08 10:47:56;;;;;;;;;;;;;;;9.12;34.71;102162.69;4951671;28;19922;-78
2022/02/08 10:50:46;;;;;;;;;;;;;;;9.25;34.31;102166.75;4954435;28;19918;-81
2022/02/08 10:53:39;;;;;;;;;;;;;;;9.35;33.77;102166.75;4955670;28;20391;-79
2022/02/08 10:56:28;;;;;;;;;;;;;;;9.41;33.33;102160.25;4951204;29;19944;-80
2022/02/08 10:59:26;;;;;;;;;;;;;;;9.56;32.99;102160.25;4952756;28;19914;-79
2022/02/08 11:02:21;;;;;;;;;;;;;;;9.65;33.89;102146.94;4941423;28;19922;-79
2022/02/08 11:05:19;;;;;;;;;;;;;;;9.87;33.30;102152.88;4954858;29;20291;-79
2022/02/08 11:16:29;;;;;;;;;;;;;;;10.92;24.43;102139.91;4956325;28;20291;-79
2022/02/08 11:22:30;;;;;;;;;;;;;;;11.15;24.84;102125.59;4951595;29;19919;-79
2022/02/08 11:25:29;;;;;;;;;;;;;;;11.22;25.33;102128.00;4954810;29;20516;-79
2022/02/08 11:28:30;;;;;;;;;;;;;;;11.38;25.64;102117.78;4955897;29;19918;-79
2022/02/08 11:31:33;;;;;;;;;;;;;;;11.49;26.81;102111.13;4958932;29;19915;-79
2022/02/08 11:47:11;;;;;;;;;;;;;;;11.88;27.83;102095.53;4953524;28;19914;-79
2022/02/08 11:55:42;;;;;;;;;;;;;;;12.11;27.62;102093.88;4944422;29;20303;-80
2022/02/08 11:58:34;;;;;;;;;;;;;;;12.12;27.19;102091.97;4954619;28;19918;-80
2022/02/08 12:01:33;;;;;;;;;;;;;;;12.34;26.22;102093.00;4960646;28;19918;-79
2022/02/08 12:07:16;;;;;;;;;;;;;;;12.63;25.97;102071.06;4940819;29;19915;-79
2022/02/08 12:10:13;;;;;;;;;;;;;;;12.72;25.61;102063.84;4941040;29;19914;-79
2022/02/08 12:58:01;;;;;;;;;;;;;;;14.08;18.71;102010.50;4940405;29;19915;-84
2022/02/08 13:01:09;;;;;;;;;;;;;;;14.23;19.01;102003.88;4940351;29;19915;-82
2022/02/08 13:04:07;;;;;;;;;;;;;;;14.30;18.75;102004.28;4940410;29;19915;-82
2022/02/08 14:02:08;;;;;;;;;;;;;;;14.87;18.17;102008.13;4957925;29;19923;-83
2022/02/08 14:08:09;;;;;;;;;;;;;;;14.86;18.07;102018.28;4958608;29;19914;-83
2022/02/08 14:11:25;;;;;;;;;;;;;;;14.95;18.15;102015.59;4958092;29;19915;-84
2022/02/08 14:29:02;;;;;;;;;;;;;;;15.31;18.22;102001.78;4957713;29;19914;-84
2022/02/08 14:32:18;;;;;;;;;;;;;;;15.37;18.21;101995.84;4950007;28;19915;-88
2022/02/08 15:08:20;;;;;;;;;;;;;;;15.33;18.69;101994.88;4962991;28;19910;-87
2022/02/08 15:11:08;;;;;;;;;;;;;;;15.40;18.95;102000.69;4958263;28;19915;-88
2022/02/08 15:13:56;;;;;;;;;;;;;;;15.38;18.68;101997.47;4960503;28;19915;-88
2022/02/08 15:16:40;;;;;;;;;;;;;;;15.33;18.89;102000.34;4958679;28;20335;-88
2022/02/08 15:19:25;;;;;;;;;;;;;;;15.31;18.74;101999.84;4961791;28;19914;-88
2022/02/08 15:22:10;;;;;;;;;;;;;;;15.32;19.12;102003.38;4961461;28;19918;-87
2022/02/08 15:24:54;;;;;;;;;;;;;;;15.27;19.61;102011.75;4958471;28;19914;-88
2022/02/08 15:27:41;;;;;;;;;;;;;;;15.23;19.37;102010.78;4962325;28;19913;-88
2022/02/08 15:30:25;;;;;;;;;;;;;;;15.15;19.72;102009.59;4970534;28;19914;-87
2022/02/08 15:33:11;;;;;;;;;;;;;;;15.12;19.57;102006.69;4970831;28;19914;-87
2022/02/08 15:35:56;;;;;;;;;;;;;;;15.07;19.85;102013.09;4960846;28;19914;-88
2022/02/08 15:38:41;;;;;;;;;;;;;;;15.01;19.65;102005.31;4964622;28;20303;-88
2022/02/08 15:41:25;;;;;;;;;;;;;;;14.97;20.06;102018.84;4962999;28;19918;-85
2022/02/08 15:44:14;;;;;;;;;;;;;;;14.92;19.92;102022.53;4958550;28;19918;-87
2022/02/08 15:47:04;;;;;;;;;;;;;;;14.89;19.97;102014.09;4952731;28;19918;-86
2022/02/08 15:49:56;;;;;;;;;;;;;;;14.89;20.42;102016.84;4955247;28;19918;-87
2022/02/08 15:56:08;;;;;;;;;;;;;;;14.84;21.78;102017.78;4943365;29;19948;-87
2022/02/08 16:11:04;;;;;;;;;;;;;;;14.36;21.43;102019.47;4940862;29;19915;-86
2022/02/08 16:13:58;;;;;;;;;;;;;;;14.36;21.51;102014.00;4945421;29;19914;-86
2022/02/08 16:28:53;;;;;;;;;;;;;;;14.25;22.99;102035.31;4964181;28;19914;-84
2022/02/08 17:00:48;;;;;;;;;;;;;;;13.35;24.86;102059.81;4942951;29;19915;-89
2022/02/08 17:03:33;;;;;;;;;;;;;;;13.32;25.25;102060.41;4949805;28;19919;-84
2022/02/08 17:06:19;;;;;;;;;;;;;;;13.32;25.54;102061.22;4958934;28;19915;-85
2022/02/08 17:09:11;;;;;;;;;;;;;;;13.31;25.85;102059.59;4958315;28;19914;-84
2022/02/08 17:12:16;;;;;;;;;;;;;;;13.27;25.67;102067.59;4946481;29;19914;-85
2022/02/08 17:48:05;;;;;;;;;;;;;;;12.53;25.17;102087.59;4948849;29;19915;-81
2022/02/08 17:50:50;;;;;;;;;;;;;;;12.55;27.28;102092.75;4949376;29;19915;-83
2022/02/08 17:53:34;;;;;;;;;;;;;;;12.37;26.06;102097.09;4955340;28;19922;-82
2022/02/08 17:56:19;;;;;;;;;;;;;;;12.24;26.61;102097.81;4951429;28;19944;-82
2022/02/08 17:59:03;;;;;;;;;;;;;;;12.02;26.77;102092.09;4959511;28;19914;-84
2022/02/08 18:01:48;;;;;;;;;;;;;;;11.90;27.32;102104.22;4958383;29;19918;-84
2022/02/08 18:04:32;;;;;;;;;;;;;;;11.90;27.01;102106.94;4961499;28;19914;-84
2022/02/08 18:07:20;;;;;;;;;;;;;;;11.70;27.49;102104.41;4958289;28;19914;-84
2022/02/08 18:10:05;;;;;;;;;;;;;;;11.62;28.11;102110.50;4957936;28;20391;-82
2022/02/08 18:12:52;;;;;;;;;;;;;;;11.55;28.41;102121.72;4960573;28;19915;-84
2022/02/08 18:15:36;;;;;;;;;;;;;;;11.57;28.63;102118.72;4957944;28;19915;-84
2022/02/08 18:18:30;;;;;;;;;;;;;;;11.54;28.62;102124.72;4957785;28;20394;-84
2022/02/08 18:21:26;;;;;;;;;;;;;;;11.54;28.98;102130.16;4942970;29;19915;-84
2022/02/08 19:09:18;;;;;;;;;;;;;;;11.08;30.57;102160.50;4956961;29;19914;-83
2022/02/08 19:12:20;;;;;;;;;;;;;;;10.92;30.71;102161.69;4938919;29;20372;-83
2022/02/08 19:15:35;;;;;;;;;;;;;;;10.86;30.55;102165.56;4957844;28;19918;-84
2022/02/08 19:18:35;;;;;;;;;;;;;;;10.95;30.55;102174.75;4953595;28;20093;-82
2022/02/08 19:24:07;;;;;;;;;;;;;;;10.86;30.85;102173.72;4956803;28;19919;-83
2022/02/08 19:26:55;;;;;;;;;;;;;;;11.00;31.42;102180.16;4948998;29;19914;-83
2022/02/08 19:29:39;;;;;;;;;;;;;;;10.82;30.61;102178.06;4954664;29;19914;-83
2022/02/08 19:32:24;;;;;;;;;;;;;;;10.97;30.52;102186.16;4949932;28;19915;-83
2022/02/08 19:35:11;;;;;;;;;;;;;;;10.88;31.14;102187.84;4945707;29;19944;-82
2022/02/08 19:37:56;;;;;;;;;;;;;;;11.09;30.93;102188.53;4958217;29;19919;-83
2022/02/08 19:40:41;;;;;;;;;;;;;;;10.61;32.07;102188.28;4941880;28;19915;-81
2022/02/08 19:43:25;;;;;;;;;;;;;;;10.49;32.36;102189.69;4946863;28;20304;-83
2022/02/08 19:46:09;;;;;;;;;;;;;;;10.78;32.65;102193.34;4951964;28;19923;-83
2022/02/08 19:48:54;;;;;;;;;;;;;;;10.84;32.56;102189.50;4950571;29;20012;-83
2022/02/08 19:51:39;;;;;;;;;;;;;;;10.79;33.24;102186.00;4943149;29;20391;-82
2022/02/08 19:54:27;;;;;;;;;;;;;;;10.44;32.53;102184.25;4946951;28;19923;-82
2022/02/08 19:57:19;;;;;;;;;;;;;;;10.41;31.48;102182.09;4943958;28;19914;-81
2022/02/08 20:00:08;;;;;;;;;;;;;;;10.11;31.95;102189.22;4957167;28;19915;-82
2022/02/08 20:02:57;;;;;;;;;;;;;;;9.83;32.27;102184.41;4947294;28;19922;-83
2022/02/08 20:05:44;;;;;;;;;;;;;;;9.75;34.00;102185.75;4950981;28;19914;-82
2022/02/08 20:08:28;;;;;;;;;;;;;;;9.87;34.61;102185.47;4945417;29;19915;-82
2022/02/08 20:11:12;;;;;;;;;;;;;;;9.60;34.23;102188.47;4949101;28;19915;-82
2022/02/08 20:13:57;;;;;;;;;;;;;;;9.36;34.78;102193.63;4956087;29;19914;-82
2022/02/08 20:16:42;;;;;;;;;;;;;;;9.41;34.27;102179.25;4957746;28;20298;-82
2022/02/08 20:19:27;;;;;;;;;;;;;;;9.17;34.31;102183.59;4953314;28;19915;-82
2022/02/08 20:22:13;;;;;;;;;;;;;;;8.99;35.66;102184.91;4957069;29;20379;-82
2022/02/08 20:24:58;;;;;;;;;;;;;;;8.69;36.06;102176.69;4956507;28;19918;-83
2022/02/08 20:27:51;;;;;;;;;;;;;;;9.14;36.86;102174.09;4953728;28;19915;-81
2022/02/08 20:30:36;;;;;;;;;;;;;;;9.50;35.75;102184.97;4955774;28;20306;-82
2022/02/08 20:33:21;;;;;;;;;;;;;;;9.32;35.84;102175.47;4956563;29;19915;-83
2022/02/08 20:36:06;;;;;;;;;;;;;;;9.24;34.07;102178.72;4960739;28;19915;-83
2022/02/08 20:38:51;;;;;;;;;;;;;;;9.15;34.55;102186.56;4969401;28;20311;-83
2022/02/08 20:41:36;;;;;;;;;;;;;;;9.01;34.03;102188.16;4966011;28;19914;-83
2022/02/08 20:44:22;;;;;;;;;;;;;;;9.11;35.52;102190.09;4963051;28;19918;-83
2022/02/08 20:47:19;;;;;;;;;;;;;;;9.07;33.95;102186.28;4969412;28;19915;-83
2022/02/08 20:50:12;;;;;;;;;;;;;;;8.91;34.15;102197.09;4966140;29;19915;-83
2022/02/08 20:53:02;;;;;;;;;;;;;;;8.77;34.95;102189.75;4967458;29;20295;-83
2022/02/08 20:55:52;;;;;;;;;;;;;;;8.72;34.55;102193.25;4970983;28;19914;-83
2022/02/08 20:58:50;;;;;;;;;;;;;;;8.78;34.19;102188.66;4971470;28;19914;-82
2022/02/08 21:01:38;;;;;;;;;;;;;;;9.01;34.63;102202.56;4970613;28;19922;-83
2022/02/08 21:07:08;;;;;;;;;;;;;;;8.69;34.54;102198.38;4966895;28;19914;-82
2022/02/08 21:09:52;;;;;;;;;;;;;;;8.78;34.59;102196.81;4963433;28;20388;-83
2022/02/08 21:13:01;;;;;;;;;;;;;;;8.81;34.95;102188.13;4965835;28;19914;-82
2022/02/08 21:15:46;;;;;;;;;;;;;;;8.83;35.51;102199.53;4968529;28;19914;-83
2022/02/08 21:18:30;;;;;;;;;;;;;;;8.50;35.09;102196.16;4967826;28;20535;-82
2022/02/08 21:21:15;;;;;;;;;;;;;;;8.72;35.73;102187.00;4964393;28;19915;-82
2022/02/08 21:23:59;;;;;;;;;;;;;;;8.72;36.10;102187.00;4962394;28;19927;-83
2022/02/08 21:26:48;;;;;;;;;;;;;;;8.85;35.33;102184.59;4967382;28;19914;-83
2022/02/08 21:29:49;;;;;;;;;;;;;;;8.80;35.46;102181.06;4974207;28;19918;-82
2022/02/08 21:47:49;;;;;;;;;;;;;;;7.98;36.09;102176.31;4970378;28;19903;-83
2022/02/08 21:53:35;;;;;;;;;;;;;;;7.52;38.76;102184.13;4977094;28;19914;-82
2022/02/08 21:56:20;;;;;;;;;;;;;;;7.46;38.98;102174.38;4968961;28;19918;-83
2022/02/08 21:59:05;;;;;;;;;;;;;;;7.90;36.76;102183.06;4977095;28;19918;-83
2022/02/08 22:01:49;;;;;;;;;;;;;;;8.06;37.34;102175.84;4950215;28;19918;-83
2022/02/08 22:04:34;;;;;;;;;;;;;;;8.18;37.05;102176.44;4960721;28;20314;-83
2022/02/08 22:07:19;;;;;;;;;;;;;;;7.72;36.64;102176.16;4974703;28;19914;-83
2022/02/08 22:10:26;;;;;;;;;;;;;;;7.59;37.44;102178.50;4942658;29;20388;-83
2022/02/08 22:22:21;;;;;;;;;;;;;;;8.38;36.64;102175.78;4953154;28;19914;-83
2022/02/08 22:31:21;;;;;;;;;;;;;;;8.59;39.50;102180.19;4958496;28;19914;-83
2022/02/08 22:34:11;;;;;;;;;;;;;;;8.70;39.46;102178.31;4959721;28;19914;-83
2022/02/08 22:39:53;;;;;;;;;;;;;;;8.27;38.88;102188.44;4963183;28;19915;-84
2022/02/08 22:42:44;;;;;;;;;;;;;;;7.99;38.25;102194.22;4959435;28;19918;-83
2022/02/08 22:45:29;;;;;;;;;;;;;;;7.90;38.41;102195.78;4959002;28;19914;-83